createdAt,value
2018-10-07T00:00:07.191Z,99391.00
2018-10-07T00:02:36.444Z,99392.00
2018-10-07T00:05:05.691Z,99397.00
2018-10-07T00:07:34.930Z,99395.00
2018-10-07T00:10:04.190Z,99397.00
2018-10-07T00:12:33.426Z,99402.00
2018-10-07T00:15:02.685Z,99412.00
2018-10-07T00:17:31.926Z,99412.00
2018-10-07T00:20:01.156Z,99417.00
2018-10-07T00:22:30.393Z,99419.00
2018-10-07T00:24:59.647Z,99421.00
2018-10-07T00:27:28.894Z,99422.00
2018-10-07T00:29:58.153Z,99421.00
2018-10-07T00:32:27.383Z,99423.00
2018-10-07T00:34:56.644Z,99422.00
2018-10-07T00:37:25.894Z,99418.00
2018-10-07T00:39:55.350Z,99419.00
2018-10-07T00:42:24.591Z,99425.00
2018-10-07T00:44:53.836Z,99422.00
2018-10-07T00:47:23.166Z,99426.00
2018-10-07T00:49:52.391Z,99429.00
2018-10-07T00:52:21.630Z,99426.00
2018-10-07T00:54:50.855Z,99427.00
2018-10-07T00:57:20.087Z,99432.00
2018-10-07T00:59:49.311Z,99430.00
2018-10-07T01:02:18.570Z,99427.00
2018-10-07T01:04:47.796Z,99436.00
2018-10-07T01:07:17.039Z,99433.00
2018-10-07T01:09:46.272Z,99434.00
2018-10-07T01:12:15.485Z,99437.00
2018-10-07T01:14:44.742Z,99437.00
2018-10-07T01:17:13.976Z,99438.00
2018-10-07T01:19:43.199Z,99438.00
2018-10-07T01:22:12.435Z,99439.00
2018-10-07T01:24:41.672Z,99448.00
2018-10-07T01:27:10.918Z,99445.00
2018-10-07T01:29:40.152Z,99446.00
2018-10-07T01:32:09.377Z,99442.00
2018-10-07T01:34:38.616Z,99441.00
2018-10-07T01:37:07.839Z,99438.00
2018-10-07T01:39:37.063Z,99440.00
2018-10-07T01:42:06.314Z,99447.00
2018-10-07T01:44:35.540Z,99454.00
2018-10-07T01:47:04.787Z,99454.00
2018-10-07T01:49:33.984Z,99451.00
2018-10-07T01:52:03.219Z,99447.00
2018-10-07T01:54:32.442Z,99446.00
2018-10-07T01:57:01.681Z,99454.00
2018-10-07T01:59:30.938Z,99455.00
2018-10-07T02:02:00.148Z,99462.00
2018-10-07T02:04:29.373Z,99463.00
2018-10-07T02:06:58.595Z,99466.00
2018-10-07T02:09:27.809Z,99457.00
2018-10-07T02:11:57.042Z,99457.00
2018-10-07T02:14:26.267Z,99462.00
2018-10-07T02:16:55.492Z,99468.00
2018-10-07T02:19:24.703Z,99473.00
2018-10-07T02:21:53.942Z,99476.00
2018-10-07T02:24:23.153Z,99486.00
2018-10-07T02:26:52.434Z,99488.00
2018-10-07T02:29:21.672Z,99490.00
2018-10-07T02:31:50.901Z,99483.00
2018-10-07T02:34:20.109Z,99486.00
2018-10-07T02:36:49.329Z,99484.00
2018-10-07T02:39:18.579Z,99475.00
2018-10-07T02:41:47.835Z,99472.00
2018-10-07T02:44:17.079Z,99471.00
2018-10-07T02:46:46.310Z,99477.00
2018-10-07T02:49:15.528Z,99479.00
2018-10-07T02:51:44.759Z,99480.00
2018-10-07T02:54:13.981Z,99482.00
2018-10-07T02:56:43.401Z,99490.00
2018-10-07T02:59:14.186Z,99498.00
2018-10-07T03:01:43.413Z,99499.00
2018-10-07T03:04:12.738Z,99502.00
2018-10-07T03:06:41.987Z,99497.00
2018-10-07T03:09:11.568Z,99503.00
2018-10-07T03:11:40.906Z,99491.00
2018-10-07T03:14:10.132Z,99496.00
2018-10-07T03:16:39.365Z,99497.00
2018-10-07T03:19:08.606Z,99498.00
2018-10-07T03:21:37.841Z,99502.00
2018-10-07T03:24:07.123Z,99504.00
2018-10-07T03:26:36.351Z,99504.00
2018-10-07T03:29:05.564Z,99501.00
2018-10-07T03:31:34.808Z,99502.00
2018-10-07T03:34:04.060Z,99500.00
2018-10-07T03:36:33.286Z,99502.00
2018-10-07T03:39:02.562Z,99503.00
2018-10-07T03:41:31.853Z,99502.00
2018-10-07T03:44:01.087Z,99508.00
2018-10-07T03:46:30.313Z,99504.00
2018-10-07T03:48:59.544Z,99507.00
2018-10-07T03:51:28.755Z,99513.00
2018-10-07T03:53:57.972Z,99519.00
2018-10-07T03:56:27.210Z,99515.00
2018-10-07T03:58:56.436Z,99523.00
2018-10-07T04:01:25.666Z,99520.00
2018-10-07T04:03:54.895Z,99519.00
2018-10-07T04:06:24.137Z,99526.00
2018-10-07T04:08:53.345Z,99530.00
2018-10-07T04:11:22.756Z,99529.00
2018-10-07T04:13:52.129Z,99535.00
2018-10-07T04:16:21.394Z,99540.00
2018-10-07T04:18:51.996Z,99545.00
2018-10-07T04:21:21.971Z,99541.00
2018-10-07T04:23:52.863Z,99540.00
2018-10-07T04:26:22.097Z,99541.00
2018-10-07T04:28:51.318Z,99542.00
2018-10-07T04:31:20.549Z,99545.00
2018-10-07T04:33:49.781Z,99549.00
2018-10-07T04:36:20.033Z,99546.00
2018-10-07T04:38:49.239Z,99548.00
2018-10-07T04:41:18.486Z,99553.00
2018-10-07T04:43:47.751Z,99556.00
2018-10-07T04:46:17.046Z,99556.00
2018-10-07T04:48:46.261Z,99563.00
2018-10-07T04:51:15.520Z,99564.00
2018-10-07T04:53:44.765Z,99570.00
2018-10-07T04:56:14.022Z,99572.00
2018-10-07T04:58:43.255Z,99575.00
2018-10-07T05:01:12.592Z,99586.00
2018-10-07T05:03:42.031Z,99592.00
2018-10-07T05:06:11.272Z,99599.00
2018-10-07T05:08:40.555Z,99602.00
2018-10-07T05:11:10.135Z,99607.00
2018-10-07T05:13:49.091Z,99612.00
2018-10-07T05:16:51.283Z,99624.00
2018-10-07T05:19:20.644Z,99634.00
2018-10-07T05:21:49.935Z,99641.00
2018-10-07T05:24:19.524Z,99639.00
2018-10-07T05:26:48.881Z,99645.00
2018-10-07T05:29:18.118Z,99650.00
2018-10-07T05:31:47.344Z,99649.00
2018-10-07T05:34:16.585Z,99655.00
2018-10-07T05:36:45.922Z,99655.00
2018-10-07T05:39:15.150Z,99653.00
2018-10-07T05:41:44.401Z,99657.00
2018-10-07T05:44:13.630Z,99657.00
2018-10-07T05:46:42.869Z,99656.00
2018-10-07T05:49:12.092Z,99665.00
2018-10-07T05:51:41.388Z,99669.00
2018-10-07T05:54:10.595Z,99677.00
2018-10-07T05:56:39.815Z,99676.00
2018-10-07T05:59:09.065Z,99675.00
2018-10-07T06:01:43.380Z,99669.00
2018-10-07T06:04:51.953Z,99672.00
2018-10-07T06:07:21.359Z,99671.00
2018-10-07T06:09:50.592Z,99669.00
2018-10-07T06:12:19.824Z,99668.00
2018-10-07T06:15:05.948Z,99670.00
2018-10-07T06:17:35.180Z,99674.00
2018-10-07T06:20:04.439Z,99676.00
2018-10-07T06:22:33.656Z,99677.00
2018-10-07T06:25:02.882Z,99680.00
2018-10-07T06:27:32.122Z,99687.00
2018-10-07T06:30:01.415Z,99689.00
2018-10-07T06:32:30.588Z,99699.00
2018-10-07T06:34:59.816Z,99702.00
2018-10-07T06:37:29.055Z,99721.00
2018-10-07T06:39:58.328Z,99724.00
2018-10-07T06:42:27.563Z,99727.00
2018-10-07T06:44:56.784Z,99732.00
2018-10-07T06:47:26.018Z,99731.00
2018-10-07T06:49:55.244Z,99730.00
2018-10-07T06:52:24.468Z,99728.00
2018-10-07T06:54:53.694Z,99728.00
2018-10-07T06:57:22.940Z,99729.00
2018-10-07T06:59:52.152Z,99732.00
2018-10-07T07:02:21.404Z,99732.00
2018-10-07T07:04:50.642Z,99738.00
2018-10-07T07:07:19.863Z,99741.00
2018-10-07T07:09:49.092Z,99747.00
2018-10-07T07:12:18.306Z,99753.00
2018-10-07T07:14:47.544Z,99758.00
2018-10-07T07:17:16.781Z,99773.00
2018-10-07T07:19:46.067Z,99780.00
2018-10-07T07:22:15.308Z,99787.00
2018-10-07T07:24:44.530Z,99783.00
2018-10-07T07:27:13.753Z,99781.00
2018-10-07T07:29:42.980Z,99788.00
2018-10-07T07:32:12.212Z,99789.00
2018-10-07T07:34:41.451Z,99794.00
2018-10-07T07:37:10.658Z,99807.00
2018-10-07T07:39:39.891Z,99816.00
2018-10-07T07:42:09.179Z,99818.00
2018-10-07T07:44:38.347Z,99818.00
2018-10-07T07:47:07.540Z,99814.00
2018-10-07T07:49:36.753Z,99812.00
2018-10-07T07:52:05.942Z,99812.00
2018-10-07T07:54:35.202Z,99820.00
2018-10-07T07:57:04.352Z,99817.00
2018-10-07T07:59:33.603Z,99825.00
2018-10-07T08:02:02.796Z,99822.00
2018-10-07T08:04:32.001Z,99825.00
2018-10-07T08:07:01.199Z,99820.00
2018-10-07T08:09:30.425Z,99813.00
2018-10-07T08:11:59.646Z,99820.00
2018-10-07T08:14:28.858Z,99818.00
2018-10-07T08:16:58.062Z,99815.00
2018-10-07T08:19:27.283Z,99819.00
2018-10-07T08:22:02.933Z,99834.00
2018-10-07T08:24:32.146Z,99840.00
2018-10-07T08:27:01.322Z,99836.00
2018-10-07T08:29:30.526Z,99841.00
2018-10-07T08:31:59.730Z,99847.00
2018-10-07T08:34:28.991Z,99852.00
2018-10-07T08:36:58.319Z,99853.00
2018-10-07T08:39:27.548Z,99854.00
2018-10-07T08:41:56.793Z,99849.00
2018-10-07T08:44:26.065Z,99845.00
2018-10-07T08:46:55.324Z,99842.00
2018-10-07T08:49:24.594Z,99841.00
2018-10-07T08:51:53.844Z,99843.00
2018-10-07T08:54:23.072Z,99845.00
2018-10-07T08:56:52.302Z,99841.00
2018-10-07T08:59:21.550Z,99836.00
2018-10-07T09:01:50.788Z,99838.00
2018-10-07T09:04:20.034Z,99841.00
2018-10-07T09:06:49.299Z,99843.00
2018-10-07T09:09:18.540Z,99854.00
2018-10-07T09:11:47.763Z,99855.00
2018-10-07T09:14:17.029Z,99858.00
2018-10-07T09:16:46.269Z,99853.00
2018-10-07T09:19:15.497Z,99864.00
2018-10-07T09:21:44.753Z,99864.00
2018-10-07T09:24:13.999Z,99862.00
2018-10-07T09:26:43.321Z,99855.00
2018-10-07T09:29:12.674Z,99856.00
2018-10-07T09:31:41.901Z,99863.00
2018-10-07T09:34:11.113Z,99865.00
2018-10-07T09:36:40.333Z,99869.00
2018-10-07T09:39:11.147Z,99875.00
2018-10-07T09:41:40.442Z,99870.00
2018-10-07T09:44:10.001Z,99871.00
2018-10-07T09:46:39.290Z,99873.00
2018-10-07T09:49:08.530Z,99876.00
2018-10-07T09:51:37.779Z,99884.00
2018-10-07T09:54:07.045Z,99888.00
2018-10-07T09:56:36.276Z,99889.00
2018-10-07T09:59:05.520Z,99893.00
2018-10-07T10:01:34.746Z,99889.00
2018-10-07T10:04:04.058Z,99903.00
2018-10-07T10:06:33.254Z,99903.00
2018-10-07T10:09:02.478Z,99903.00
2018-10-07T10:11:31.716Z,99906.00
2018-10-07T10:14:00.949Z,99908.00
2018-10-07T10:16:47.283Z,99912.00
2018-10-07T10:19:25.844Z,99907.00
2018-10-07T10:22:12.761Z,99913.00
2018-10-07T10:25:08.267Z,99910.00
2018-10-07T10:27:52.662Z,99913.00
2018-10-07T10:33:39.973Z,99920.00
2018-10-07T10:36:26.585Z,99918.00
2018-10-07T10:39:13.068Z,99919.00
2018-10-07T10:41:50.212Z,99926.00
2018-10-07T10:44:28.758Z,99930.00
2018-10-07T10:47:12.641Z,99932.00
2018-10-07T10:50:03.636Z,99926.00
2018-10-07T10:52:38.736Z,99929.00
2018-10-07T10:55:20.015Z,99929.00
2018-10-07T10:57:54.472Z,99931.00
2018-10-07T11:00:36.165Z,99930.00
2018-10-07T11:03:43.163Z,99922.00
2018-10-07T11:07:25.171Z,99923.00
2018-10-07T11:10:14.628Z,99921.00
2018-10-07T11:12:56.068Z,99919.00
2018-10-07T11:16:40.996Z,99926.00
2018-10-07T11:19:33.886Z,99929.00
2018-10-07T11:24:17.041Z,99930.00
2018-10-07T11:27:29.918Z,99937.00
2018-10-07T11:30:22.720Z,99935.00
2018-10-07T11:33:07.870Z,99940.00
2018-10-07T11:35:47.360Z,99937.00
2018-10-07T11:38:29.329Z,99931.00
2018-10-07T11:41:14.466Z,99937.00
2018-10-07T11:43:51.296Z,99937.00
2018-10-07T11:48:56.179Z,99940.00
2018-10-07T11:52:40.537Z,99944.00
2018-10-07T11:55:08.427Z,99941.00
2018-10-07T11:57:38.509Z,99943.00
2018-10-07T12:00:07.764Z,99935.00
2018-10-07T12:02:37.161Z,99932.00
2018-10-07T12:05:06.326Z,99935.00
2018-10-07T12:07:35.616Z,99933.00
2018-10-07T12:10:04.894Z,99934.00
2018-10-07T12:12:34.510Z,99936.00
2018-10-07T12:15:03.725Z,99932.00
2018-10-07T12:17:32.996Z,99933.00
2018-10-07T12:20:02.220Z,99935.00
2018-10-07T12:22:31.449Z,99932.00
2018-10-07T12:25:00.672Z,99934.00
2018-10-07T12:27:29.935Z,99938.00
2018-10-07T12:29:59.177Z,99944.00
2018-10-07T12:32:28.422Z,99945.00
2018-10-07T12:34:57.636Z,99945.00
2018-10-07T12:37:26.873Z,99938.00
2018-10-07T12:39:56.155Z,99940.00
2018-10-07T12:42:25.417Z,99938.00
2018-10-07T12:44:54.635Z,99934.00
2018-10-07T12:47:23.970Z,99933.00
2018-10-07T12:49:53.197Z,99937.00
2018-10-07T12:52:22.426Z,99938.00
2018-10-07T12:54:51.640Z,99939.00
2018-10-07T12:57:20.881Z,99945.00
2018-10-07T12:59:50.187Z,99938.00
2018-10-07T13:02:19.402Z,99943.00
2018-10-07T13:04:48.607Z,99943.00
2018-10-07T13:07:17.876Z,99946.00
2018-10-07T13:09:47.076Z,99947.00
2018-10-07T13:12:16.315Z,99945.00
2018-10-07T13:14:45.560Z,99947.00
2018-10-07T13:17:14.781Z,99954.00
2018-10-07T13:19:43.991Z,99961.00
2018-10-07T13:22:13.205Z,99953.00
2018-10-07T13:24:42.427Z,99950.00
2018-10-07T13:27:11.671Z,99953.00
2018-10-07T13:29:40.908Z,99958.00
2018-10-07T13:32:10.098Z,99961.00
2018-10-07T13:34:39.316Z,99962.00
2018-10-07T13:37:08.534Z,99965.00
2018-10-07T13:39:37.763Z,99966.00
2018-10-07T13:42:07.361Z,99969.00
2018-10-07T13:44:36.595Z,99973.00
2018-10-07T13:47:05.852Z,99971.00
2018-10-07T13:49:35.117Z,99971.00
2018-10-07T13:52:04.358Z,99972.00
2018-10-07T13:54:33.594Z,99971.00
2018-10-07T13:57:02.814Z,99978.00
2018-10-07T13:59:32.056Z,99977.00
2018-10-07T14:02:01.264Z,99977.00
2018-10-07T14:04:30.505Z,99982.00
2018-10-07T14:06:59.733Z,99981.00
2018-10-07T14:09:28.954Z,99981.00
2018-10-07T14:11:58.191Z,99981.00
2018-10-07T14:14:27.524Z,99978.00
2018-10-07T14:16:56.750Z,99978.00
2018-10-07T14:19:26.007Z,99985.00
2018-10-07T14:21:55.217Z,99983.00
2018-10-07T14:24:24.460Z,99988.00
2018-10-07T14:26:53.657Z,99991.00
2018-10-07T14:29:22.881Z,99992.00
2018-10-07T14:31:52.171Z,100002.00
2018-10-07T14:34:21.401Z,100001.00
2018-10-07T14:36:50.618Z,100002.00
2018-10-07T14:39:19.961Z,100009.00
2018-10-07T14:41:49.109Z,100009.00
2018-10-07T14:44:18.469Z,100014.00
2018-10-07T14:46:47.722Z,100016.00
2018-10-07T14:49:16.991Z,100009.00
2018-10-07T14:51:46.215Z,100017.00
2018-10-07T14:54:15.477Z,100021.00
2018-10-07T14:56:44.722Z,100026.00
2018-10-07T14:59:13.986Z,100032.00
2018-10-07T15:01:43.190Z,100029.00
2018-10-07T15:04:12.426Z,100032.00
2018-10-07T15:06:41.660Z,100037.00
2018-10-07T15:09:12.046Z,100053.00
2018-10-07T15:11:41.526Z,100038.00
2018-10-07T15:14:10.757Z,100045.00
2018-10-07T15:16:40.051Z,100047.00
2018-10-07T15:19:09.308Z,100047.00
2018-10-07T15:21:38.554Z,100046.00
2018-10-07T15:24:07.812Z,100054.00
2018-10-07T15:26:37.061Z,100053.00
2018-10-07T15:29:06.318Z,100055.00
2018-10-07T15:31:35.591Z,100060.00
2018-10-07T15:34:04.834Z,100067.00
2018-10-07T15:36:34.066Z,100069.00
2018-10-07T15:39:04.140Z,100076.00
2018-10-07T15:41:33.365Z,100072.00
2018-10-07T15:44:02.739Z,100070.00
2018-10-07T15:46:32.056Z,100076.00
2018-10-07T15:49:01.316Z,100084.00
2018-10-07T15:51:30.524Z,100079.00
2018-10-07T15:53:59.747Z,100083.00
2018-10-07T15:56:28.973Z,100081.00
2018-10-07T15:58:58.201Z,100084.00
2018-10-07T16:01:27.402Z,100085.00
2018-10-07T16:03:56.631Z,100089.00
2018-10-07T16:06:25.844Z,100087.00
2018-10-07T16:08:55.076Z,100089.00
2018-10-07T16:11:24.288Z,100087.00
2018-10-07T16:13:53.515Z,100089.00
2018-10-07T16:16:22.751Z,100095.00
2018-10-07T16:18:52.071Z,100096.00
2018-10-07T16:21:21.272Z,100097.00
2018-10-07T16:23:50.560Z,100097.00
2018-10-07T16:26:19.869Z,100101.00
2018-10-07T16:28:49.020Z,100108.00
2018-10-07T16:31:18.250Z,100106.00
2018-10-07T16:33:47.452Z,100109.00
2018-10-07T16:36:16.704Z,100112.00
2018-10-07T16:38:45.905Z,100112.00
2018-10-07T16:41:15.279Z,100118.00
2018-10-07T16:43:44.492Z,100113.00
2018-10-07T16:46:13.722Z,100118.00
2018-10-07T16:48:42.962Z,100119.00
2018-10-07T16:51:12.178Z,100122.00
2018-10-07T16:53:41.380Z,100127.00
2018-10-07T16:56:10.615Z,100136.00
2018-10-07T16:58:39.834Z,100144.00
2018-10-07T17:01:09.053Z,100142.00
2018-10-07T17:03:38.282Z,100152.00
2018-10-07T17:06:07.502Z,100159.00
2018-10-07T17:08:36.712Z,100168.00
2018-10-07T17:11:05.926Z,100169.00
2018-10-07T17:13:35.147Z,100178.00
2018-10-07T17:16:04.368Z,100186.00
2018-10-07T17:18:33.600Z,100191.00
2018-10-07T17:21:02.908Z,100197.00
2018-10-07T17:23:32.077Z,100204.00
2018-10-07T17:26:01.311Z,100213.00
2018-10-07T17:28:30.551Z,100221.00
2018-10-07T17:30:59.785Z,100227.00
2018-10-07T17:33:29.020Z,100231.00
2018-10-07T17:35:58.237Z,100232.00
2018-10-07T17:38:27.438Z,100237.00
2018-10-07T17:40:56.656Z,100255.00
2018-10-07T17:43:25.885Z,100253.00
2018-10-07T17:45:55.174Z,100246.00
2018-10-07T17:48:24.560Z,100246.00
2018-10-07T17:50:53.657Z,100253.00
2018-10-07T17:53:22.899Z,100261.00
2018-10-07T17:55:52.149Z,100262.00
2018-10-07T17:58:21.373Z,100268.00
2018-10-07T18:00:50.613Z,100278.00
2018-10-07T18:03:20.113Z,100283.00
2018-10-07T18:05:49.339Z,100291.00
2018-10-07T18:08:18.573Z,100286.00
2018-10-07T18:10:47.822Z,100283.00
2018-10-07T18:13:17.044Z,100291.00
2018-10-07T18:15:46.271Z,100289.00
2018-10-07T18:18:15.487Z,100287.00
2018-10-07T18:20:44.752Z,100290.00
2018-10-07T18:23:13.954Z,100292.00
2018-10-07T18:25:43.188Z,100296.00
2018-10-07T18:28:12.429Z,100298.00
2018-10-07T18:30:41.662Z,100300.00
2018-10-07T18:33:10.898Z,100312.00
2018-10-07T18:35:40.143Z,100317.00
2018-10-07T18:38:09.376Z,100321.00
2018-10-07T18:40:38.689Z,100322.00
2018-10-07T18:43:07.933Z,100313.00
2018-10-07T18:45:37.183Z,100317.00
2018-10-07T18:48:06.437Z,100316.00
2018-10-07T18:50:35.667Z,100319.00
2018-10-07T18:53:04.900Z,100327.00
2018-10-07T18:55:34.130Z,100326.00
2018-10-07T18:58:03.371Z,100325.00
2018-10-07T19:00:32.607Z,100333.00
2018-10-07T19:03:02.000Z,100332.00
2018-10-07T19:05:31.080Z,100335.00
2018-10-07T19:08:00.305Z,100335.00
2018-10-07T19:10:29.537Z,100343.00
2018-10-07T19:12:58.772Z,100340.00
2018-10-07T19:15:28.003Z,100351.00
2018-10-07T19:17:57.237Z,100349.00
2018-10-07T19:20:26.469Z,100349.00
2018-10-07T19:22:55.958Z,100350.00
2018-10-07T19:25:25.184Z,100350.00
2018-10-07T19:27:54.460Z,100351.00
2018-10-07T19:30:23.683Z,100356.00
2018-10-07T19:32:52.937Z,100361.00
2018-10-07T19:35:22.146Z,100368.00
2018-10-07T19:37:51.497Z,100366.00
2018-10-07T19:40:20.726Z,100368.00
2018-10-07T19:42:49.996Z,100368.00
2018-10-07T19:45:19.242Z,100369.00
2018-10-07T19:47:48.472Z,100370.00
2018-10-07T19:50:17.738Z,100362.00
2018-10-07T19:52:47.037Z,100366.00
2018-10-07T19:55:16.242Z,100369.00
2018-10-07T19:57:45.468Z,100367.00
2018-10-07T20:00:14.737Z,100373.00
2018-10-07T20:02:43.983Z,100373.00
2018-10-07T20:05:13.497Z,100370.00
2018-10-07T20:07:42.734Z,100372.00
2018-10-07T20:10:11.964Z,100370.00
2018-10-07T20:12:41.177Z,100373.00
2018-10-07T20:15:10.391Z,100369.00
2018-10-07T20:17:39.601Z,100370.00
2018-10-07T20:20:08.806Z,100371.00
2018-10-07T20:22:38.037Z,100374.00
2018-10-07T20:25:07.239Z,100379.00
2018-10-07T20:27:36.574Z,100383.00
2018-10-07T20:30:05.984Z,100385.00
2018-10-07T20:32:35.201Z,100390.00
2018-10-07T20:35:04.407Z,100390.00
2018-10-07T20:37:33.623Z,100397.00
2018-10-07T20:40:02.817Z,100402.00
2018-10-07T20:42:32.042Z,100405.00
2018-10-07T20:45:01.257Z,100407.00
2018-10-07T20:47:30.506Z,100410.00
2018-10-07T20:49:59.697Z,100416.00
2018-10-07T20:52:28.942Z,100411.00
2018-10-07T20:54:58.132Z,100417.00
2018-10-07T20:57:27.349Z,100413.00
2018-10-07T20:59:56.587Z,100419.00
2018-10-07T21:02:25.841Z,100415.00
2018-10-07T21:04:55.017Z,100411.00
2018-10-07T21:07:24.278Z,100408.00
2018-10-07T21:09:53.481Z,100407.00
2018-10-07T21:12:22.702Z,100408.00
2018-10-07T21:14:51.924Z,100403.00
2018-10-07T21:17:21.345Z,100405.00
2018-10-07T21:19:50.598Z,100410.00
2018-10-07T21:22:19.832Z,100412.00
2018-10-07T21:24:49.057Z,100422.00
2018-10-07T21:27:18.303Z,100429.00
2018-10-07T21:29:47.508Z,100429.00
2018-10-07T21:32:16.747Z,100433.00
2018-10-07T21:34:45.964Z,100433.00
2018-10-07T21:37:15.177Z,100428.00
2018-10-07T21:39:44.374Z,100426.00
2018-10-07T21:42:13.631Z,100424.00
2018-10-07T21:44:42.861Z,100427.00
2018-10-07T21:47:12.093Z,100425.00
2018-10-07T21:49:41.346Z,100428.00
2018-10-07T21:52:10.591Z,100428.00
2018-10-07T21:54:39.816Z,100426.00
2018-10-07T21:57:09.061Z,100427.00
2018-10-07T21:59:38.271Z,100428.00
2018-10-07T22:02:07.541Z,100428.00
2018-10-07T22:04:36.750Z,100427.00
2018-10-07T22:07:06.003Z,100427.00
2018-10-07T22:09:35.245Z,100429.00
2018-10-07T22:12:04.490Z,100422.00
2018-10-07T22:14:33.720Z,100427.00
2018-10-07T22:17:02.970Z,100422.00
2018-10-07T22:19:32.209Z,100425.00
2018-10-07T22:22:01.452Z,100418.00
2018-10-07T22:24:30.690Z,100422.00
2018-10-07T22:26:59.931Z,100420.00
2018-10-07T22:29:29.149Z,100425.00
2018-10-07T22:31:58.659Z,100424.00
2018-10-07T22:34:27.899Z,100429.00
2018-10-07T22:36:57.127Z,100431.00
2018-10-07T22:39:26.363Z,100431.00
2018-10-07T22:41:55.609Z,100439.00
2018-10-07T22:44:24.860Z,100440.00
2018-10-07T22:46:54.103Z,100433.00
2018-10-07T22:49:23.444Z,100438.00
2018-10-07T22:51:52.687Z,100440.00
2018-10-07T22:54:21.929Z,100435.00
2018-10-07T22:56:51.346Z,100437.00
2018-10-07T22:59:20.579Z,100439.00
2018-10-07T23:01:49.953Z,100439.00
2018-10-07T23:04:19.202Z,100439.00
2018-10-07T23:06:48.484Z,100435.00
2018-10-07T23:09:17.714Z,100440.00
2018-10-07T23:11:46.950Z,100436.00
2018-10-07T23:14:16.202Z,100437.00
2018-10-07T23:16:45.434Z,100438.00
2018-10-07T23:19:14.693Z,100442.00
2018-10-07T23:21:43.921Z,100438.00
2018-10-07T23:24:13.179Z,100437.00
2018-10-07T23:26:42.407Z,100438.00
2018-10-07T23:29:11.638Z,100438.00
2018-10-07T23:31:40.875Z,100438.00
2018-10-07T23:34:10.173Z,100430.00
2018-10-07T23:36:39.400Z,100432.00
2018-10-07T23:39:10.897Z,100424.00
2018-10-07T23:41:40.191Z,100424.00
2018-10-07T23:44:09.468Z,100419.00
2018-10-07T23:46:38.666Z,100419.00
2018-10-07T23:49:11.503Z,100414.00
2018-10-07T23:51:40.774Z,100420.00
2018-10-07T23:54:09.941Z,100424.00
2018-10-07T23:56:39.153Z,100425.00
2018-10-07T23:59:08.369Z,100428.00
